Oakland, CA (94605)

8:28 AM PDT on October 25, 2014 (GMT -0700)
Eastmont Hills | Change Station
CLOSE
Current Station
Personal Weather Station
Location: Oakland, CA
Elevation: 423 ft
Nearby Weather Stations

Elev 423 ft 37.77 °N, 122.16 °W | Updated 3 minutes ago

Rain
Rain
56.9 °F
Feels Like 56.9 °F
N
0.0
Wind Variable Wind from SE
Gusts 0.0 mph

Today
High -- | Low -- °F
--% Chance of Precip.
Yesterday
High -- | Low -- °F
Precip. -- in
7:26 AM 6:17 PM
Waxing Crescent, 3% visible
Pressure 29.98 in
Visibility 10.0 miles
Clouds Few 600 ft
Scattered Clouds 3800 ft
Overcast 6500 ft
Dew Point 55 °F
Humidity 94%
Rainfall 0.40 in
Snow Depth Not available.
UV 0 out of 12
Pollen .10 out of 12
Ozone Good
PM2.5 Good
Flu Activity Sporadic
METAR KOAK 251453Z 16012KT 10SM -RA FEW006 SCT038 OVC065 17/14 A2998 RMK AO2 RAB1358E15B51 SLP150 P0000 60022 T01670139 51027

More Conditions Fewer Conditions

Pressure 29.98 in
Visibility 10.0 miles
Clouds Few 600 ft
Scattered Clouds 3800 ft
Overcast 6500 ft
Dew Point 55 °F
Humidity 94%
Rainfall 0.40 in
Snow Depth Not available.
UV 0 out of 12
Pollen .10 out of 12
Ozone Good
PM2.5 Good
Flu Activity Sporadic
METAR KOAK 251453Z 16012KT 10SM -RA FEW006 SCT038 OVC065 17/14 A2998 RMK AO2 RAB1358E15B51 SLP150 P0000 60022 T01670139 51027

More Conditions Fewer Conditions

10-Day Weather Forecast

Almanac

Astronomy

Oct. 25, 2014 Rise Set
Actual Time 7:26 AM PDT 6:17 PM PDT
Civil Twilight 7:00 AM PDT 6:44 PM PDT
Nautical Twilight 6:29 AM PDT 7:15 PM PDT
Astronomical Twilight 5:58 AM PDT 7:45 PM PDT
Moon 9:09 AM PDT 7:46 PM PDT
Length of Visible Light 11h 44m
Length of Day
10h 51m
Tomorrow will be 2m 14s shorter.
Waxing Crescent, 3% of the Moon is Illuminated
Today
Waxing Crescent
Oct 30
First Quarter
Nov 6
Full
Nov 14
Last Quarter
Nov 22
New

Today's Extremes

State Highs State Lows

Community

WunderPhotos

Upload Photos

1,764,876 photos uploaded!

Nearby

Air Quality

  Air Quality AQ Index Pollutant
Yesterday Good
OZONE
Yesterday Good
PM2.5
Current Good
OZONE
Current Good
PM2.5
Saturday Good
OZONE
Sunday Good
OZONE
Monday Moderate
PM2.5
Tuesday Moderate
PM2.5
Wednesday Moderate
PM2.5

Snow Depth

Station Depth Elevation
Blue Lakes 0 in 8000 ft
Forestdale Creek 0 in 8029 ft
Echo Peak 1 in 7800 ft
Rubicon #2 1 in 7500 ft
Ebbetts Pass 0 in 8700 ft

Earthquake Activity

City Distance Mag. Time & Date
Antioch, California 28 miles 2.7 6:42 AM PDT
2014-10-25
Deer Park, California 55 miles 2.8 6:40 AM PDT
2014-10-25
Coalinga, California 153 miles 2.5 11:01 PM PDT
2014-10-24
Minimum magnitude displayed is 2.5.

Coastal Water Temperatures

Place Temperature
No Stations Reporting

Nearby Weather Stations